Thunder radar more information blitzortung!


Radar de pluja more information rain snow radar


Visita la nostra xarxa de llocs de meteo:

Template documentation
and downloads

And another site



Extreme low temperature From: 13-12-2017 09:00 Until: 09:59 warning for: Extreme low temperature Level: Yellow info button

Pagina Historial Weather Underground text

Diari Resum Juny 7, 2016 Unitats:  Mètric    Imperial   Tant
« Previous Dia
SegĂźent Dia »
Diari Setmana Mensual Anual Personalitzada
  Maxima: Minima: Media:
Temperatura: 32.0 °C 15.8 °C 25.2 °C
Punt de rosada: 14.5 °C 9.9 °C 12.1 °C
Humitat: 72 % 29 % 46 %
Wind Speed: 22.2 km/h 0.0 km/h 7.4 km/h
RĂ fegues de vent: 22.2 km/h - -
Vent:- - SSW
Pression baro: 1023.9 hPa 1017.8 hPa -
Precipitacions: 0.0 mm    
Historical Graphs
 
 
Dades de taula per Juny 7, 2016
Temps Temperatura Punt de rosada Pression baro Vent Wind Speed RĂ fegues de vent Humitat Rainfall Rate (Hourly)
00:00 19.2 °C 9.9 °C 1018.8 hPa WSW 3.7 km/h 3.7 km/h 55 % 0.0 mm
00:05 19.0 °C 10.0 °C 1018.8 hPa SW 3.7 km/h 3.7 km/h 56 % 0.0 mm
00:10 19.0 °C 10.3 °C 1018.8 hPa SW 3.7 km/h 3.7 km/h 57 % 0.0 mm
00:15 16.4 °C 11.3 °C 1020.9 hPa SW 1.6 km/h   72 % 0.0 mm
00:25 16.7 °C 11.4 °C 1020.9 hPa SW 1.6 km/h   71 % 0.0 mm
00:35 16.7 °C 11.2 °C 1020.9 hPa SW 1.6 km/h   70 % 0.0 mm
00:45 16.7 °C 11.2 °C 1020.9 hPa SW 1.6 km/h   70 % 0.0 mm
00:55 16.7 °C 11.0 °C 1020.9 hPa SW 1.6 km/h   69 % 0.0 mm
01:05 16.5 °C 10.8 °C 1021.9 hPa SW 1.6 km/h   69 % 0.0 mm
01:15 16.3 °C 10.8 °C 1021.9 hPa SW 1.6 km/h   70 % 0.0 mm
01:25 16.3 °C 10.8 °C 1020.9 hPa SW 1.6 km/h   70 % 0.0 mm
01:35 16.1 °C 10.8 °C 1021.9 hPa SW 1.6 km/h   71 % 0.0 mm
01:45 16.2 °C 10.7 °C 1021.9 hPa WSW 1.6 km/h 3.2 km/h 70 % 0.0 mm
01:55 16.2 °C 10.7 °C 1021.9 hPa Calm   1.6 km/h 70 % 0.0 mm
02:05 15.8 °C 10.6 °C 1021.9 hPa WSW 1.6 km/h 1.6 km/h 71 % 0.0 mm
02:15 16.1 °C 10.8 °C 1021.9 hPa SW 1.6 km/h 3.2 km/h 71 % 0.0 mm
02:25 16.8 °C 11.3 °C 1021.9 hPa West 1.6 km/h 4.8 km/h 70 % 0.0 mm
02:35 17.0 °C 11.1 °C 1021.9 hPa WNW 1.6 km/h 3.2 km/h 68 % 0.0 mm
02:45 16.9 °C 11.4 °C 1021.9 hPa WSW 1.6 km/h 3.2 km/h 70 % 0.0 mm
02:55 17.0 °C 11.3 °C 1022.9 hPa SW 3.2 km/h 4.8 km/h 69 % 0.0 mm
03:05 17.1 °C 11.6 °C 1021.9 hPa SW 3.2 km/h 4.8 km/h 70 % 0.0 mm
03:15 17.6 °C 11.8 °C 1021.9 hPa SW 1.6 km/h 4.8 km/h 69 % 0.0 mm
03:25 18.0 °C 12.2 °C 1022.9 hPa SW 1.6 km/h 3.2 km/h 69 % 0.0 mm
03:35 18.6 °C 12.6 °C 1022.9 hPa SW 1.6 km/h 4.8 km/h 68 % 0.0 mm
03:45 19.2 °C 12.9 °C 1022.9 hPa Calm   3.2 km/h 67 % 0.0 mm
03:55 19.6 °C 13.1 °C 1022.9 hPa SW 3.2 km/h 3.2 km/h 66 % 0.0 mm
04:05 20.0 °C 13.0 °C 1022.9 hPa SW 1.6 km/h 3.2 km/h 64 % 0.0 mm
04:15 20.8 °C 13.3 °C 1022.9 hPa WSW 1.6 km/h 3.2 km/h 62 % 0.0 mm
04:25 21.8 °C 13.7 °C 1022.9 hPa NW 1.6 km/h 3.2 km/h 60 % 0.0 mm
04:35 22.2 °C 13.6 °C 1023.9 hPa NE 3.2 km/h 4.8 km/h 58 % 0.0 mm
04:45 22.5 °C 13.8 °C 1023.9 hPa East 4.8 km/h 4.8 km/h 58 % 0.0 mm
04:55 23.0 °C 14.0 °C 1023.9 hPa SE 3.2 km/h 6.4 km/h 57 % 0.0 mm
05:05 23.7 °C 14.1 °C 1023.9 hPa SSE 1.6 km/h 4.8 km/h 55 % 0.0 mm
05:15 23.7 °C 14.1 °C 1023.9 hPa South 1.6 km/h 3.2 km/h 55 % 0.0 mm
05:25 24.7 °C 14.2 °C 1022.9 hPa South 4.8 km/h 6.4 km/h 52 % 0.0 mm
05:35 25.1 °C 14.3 °C 1022.9 hPa SE 1.6 km/h 6.4 km/h 51 % 0.0 mm
05:45 25.7 °C 14.5 °C 1022.9 hPa ESE 1.6 km/h 4.8 km/h 50 % 0.0 mm
05:55 25.6 °C 13.8 °C 1023.9 hPa ESE 3.2 km/h 9.7 km/h 48 % 0.0 mm
11:04 26.0 °C 14.1 °C 1022.9 hPa NE 4.2 km/h 5.3 km/h 48 % 0.0 mm
11:09 26.0 °C 13.8 °C 1022.9 hPa SE 7.4 km/h 7.4 km/h 47 % 0.0 mm
11:14 26.4 °C 14.2 °C 1022.9 hPa ESE 9.3 km/h 9.3 km/h 47 % 0.0 mm
11:19 26.4 °C 14.5 °C 1022.9 hPa SW 5.8 km/h 5.8 km/h 48 % 0.0 mm
11:34 26.7 °C 14.1 °C 1022.9 hPa ESE 5.6 km/h 5.8 km/h 46 % 0.0 mm
11:39 27.2 °C 13.9 °C 1022.9 hPa ENE 13.0 km/h 13.0 km/h 44 % 0.0 mm
11:44 27.5 °C 14.5 °C 1022.9 hPa ENE 6.9 km/h 6.9 km/h 45 % 0.0 mm
11:49 27.3 °C 14.0 °C 1021.9 hPa NNE 9.3 km/h 9.3 km/h 44 % 0.0 mm
11:54 27.3 °C 14.0 °C 1021.9 hPa ENE 11.1 km/h 11.1 km/h 44 % 0.0 mm
11:59 27.5 °C 14.2 °C 1021.9 hPa ESE 12.6 km/h 12.6 km/h 44 % 0.0 mm
12:09 27.7 °C 14.0 °C 1020.9 hPa NNE 12.2 km/h 12.2 km/h 43 % 0.0 mm
12:14 27.9 °C 13.8 °C 1020.9 hPa NE 6.4 km/h 6.4 km/h 42 % 0.0 mm
12:19 28.0 °C 13.9 °C 1021.9 hPa ESE 17.5 km/h 17.5 km/h 42 % 0.0 mm
12:24 27.7 °C 13.6 °C 1021.9 hPa ENE 16.7 km/h 16.7 km/h 42 % 0.0 mm
12:29 28.2 °C 14.1 °C 1021.9 hPa ESE 9.3 km/h 9.3 km/h 42 % 0.0 mm
12:34 28.2 °C 14.1 °C 1021.9 hPa ENE 13.0 km/h 13.0 km/h 42 % 0.0 mm
12:39 28.3 °C 13.8 °C 1021.9 hPa NE 10.3 km/h 10.3 km/h 41 % 0.0 mm
12:44 28.3 °C 13.8 °C 1021.9 hPa ENE 15.6 km/h 15.6 km/h 41 % 0.0 mm
12:49 28.0 °C 13.5 °C 1021.9 hPa ESE 13.0 km/h 13.0 km/h 41 % 0.0 mm
12:54 28.5 °C 13.9 °C 1021.9 hPa NE 11.1 km/h 11.1 km/h 41 % 0.0 mm
12:59 28.9 °C 14.3 °C 1021.9 hPa ESE 13.0 km/h 13.0 km/h 41 % 0.0 mm
13:09 28.9 °C 13.9 °C 1020.9 hPa South 11.1 km/h 11.1 km/h 40 % 0.0 mm
13:14 28.6 °C 13.7 °C 1020.9 hPa ENE 13.0 km/h 13.0 km/h 40 % 0.0 mm
13:19 28.3 °C 13.0 °C 1021.9 hPa East 18.0 km/h 18.0 km/h 39 % 0.0 mm
13:24 28.2 °C 12.9 °C 1021.9 hPa ESE 16.7 km/h 16.7 km/h 39 % 0.0 mm
13:29 28.2 °C 12.9 °C 1021.9 hPa ESE 22.2 km/h 22.2 km/h 39 % 0.0 mm
13:39 28.4 °C 13.5 °C 1020.9 hPa ENE 13.0 km/h 14.0 km/h 40 % 0.0 mm
13:49 28.8 °C 13.4 °C 1020.9 hPa East 16.7 km/h 16.7 km/h 39 % 0.0 mm
13:54 29.7 °C 13.4 °C 1020.9 hPa West 6.9 km/h 6.9 km/h 37 % 0.0 mm
13:59 30.2 °C 13.9 °C 1020.9 hPa SSE 6.9 km/h 6.9 km/h 37 % 0.0 mm
14:04 30.6 °C 13.8 °C 1020.9 hPa East 9.3 km/h 9.5 km/h 36 % 0.0 mm
14:09 30.6 °C 13.4 °C 1020.9 hPa SSW 13.0 km/h 13.0 km/h 35 % 0.0 mm
14:14 30.9 °C 13.7 °C 1020.9 hPa ESE 9.3 km/h 9.3 km/h 35 % 0.0 mm
14:19 30.8 °C 13.1 °C 1019.9 hPa SW 11.1 km/h 11.1 km/h 34 % 0.0 mm
14:29 31.0 °C 13.3 °C 1019.9 hPa SSE 7.4 km/h 7.4 km/h 34 % 0.0 mm
14:34 31.7 °C 13.4 °C 1018.8 hPa West 5.0 km/h 5.0 km/h 33 % 0.0 mm
14:39 31.5 °C 13.3 °C 1018.8 hPa SSW 14.8 km/h 14.8 km/h 33 % 0.0 mm
14:44 31.5 °C 13.3 °C 1018.8 hPa South 5.8 km/h 5.8 km/h 33 % 0.0 mm
14:49 32.0 °C 13.2 °C 1019.9 hPa SSW 3.7 km/h 3.7 km/h 32 % 0.0 mm
14:54 31.4 °C 12.2 °C 1019.9 hPa SW 11.4 km/h 11.4 km/h 31 % 0.0 mm
14:59 31.4 °C 12.2 °C 1019.9 hPa ESE 8.7 km/h 8.7 km/h 31 % 0.0 mm
15:04 30.7 °C 12.6 °C 1019.9 hPa West 5.6 km/h 5.6 km/h 33 % 0.0 mm
15:09 30.9 °C 12.3 °C 1019.9 hPa WSW 7.9 km/h 7.9 km/h 32 % 0.0 mm
15:14 31.4 °C 12.2 °C 1019.9 hPa WSW 9.3 km/h 9.3 km/h 31 % 0.0 mm
15:19 31.2 °C 11.6 °C 1019.9 hPa SW 7.4 km/h 7.4 km/h 30 % 0.0 mm
15:24 30.7 °C 11.1 °C 1019.9 hPa South 11.1 km/h 11.9 km/h 30 % 0.0 mm
15:29 30.8 °C 11.2 °C 1019.9 hPa WSW 13.7 km/h 13.7 km/h 30 % 0.0 mm
15:34 31.3 °C 11.7 °C 1019.9 hPa West 7.4 km/h 7.4 km/h 30 % 0.0 mm
15:39 31.4 °C 11.7 °C 1019.9 hPa SSW 14.8 km/h 14.8 km/h 30 % 0.0 mm
15:44 31.3 °C 11.7 °C 1019.9 hPa WSW 21.2 km/h 21.2 km/h 30 % 0.0 mm
15:49 30.7 °C 10.6 °C 1019.9 hPa SSW 14.8 km/h 14.8 km/h 29 % 0.0 mm
15:54 31.0 °C 11.4 °C 1019.9 hPa SW 16.4 km/h 16.4 km/h 30 % 0.0 mm
15:59 30.9 °C 11.3 °C 1019.9 hPa West 14.8 km/h 14.8 km/h 30 % 0.0 mm
16:09 30.8 °C 11.2 °C 1019.9 hPa SSW 11.9 km/h 11.9 km/h 30 % 0.0 mm
16:14 30.6 °C 11.1 °C 1019.9 hPa ESE 16.7 km/h 16.7 km/h 30 % 0.0 mm
16:19 30.8 °C 11.2 °C 1018.8 hPa ESE 13.0 km/h 13.0 km/h 30 % 0.0 mm
16:24 31.1 °C 11.5 °C 1018.8 hPa WSW 15.1 km/h 15.1 km/h 30 % 0.0 mm
16:29 30.4 °C 10.4 °C 1018.8 hPa SSW 16.7 km/h 16.7 km/h 29 % 0.0 mm
16:34 30.5 °C 10.4 °C 1018.8 hPa SW 15.6 km/h 15.6 km/h 29 % 0.0 mm
16:39 30.0 °C 10.0 °C 1018.8 hPa SSW 14.8 km/h 14.8 km/h 29 % 0.0 mm
16:44 30.1 °C 10.1 °C 1018.8 hPa WSW 13.0 km/h 13.0 km/h 29 % 0.0 mm
16:54 30.5 °C 10.4 °C 1018.8 hPa SW 7.4 km/h 7.4 km/h 29 % 0.0 mm
16:59 30.5 °C 10.4 °C 1018.8 hPa West 14.8 km/h 14.8 km/h 29 % 0.0 mm
17:09 30.3 °C 10.8 °C 1018.8 hPa SW 7.4 km/h 7.4 km/h 30 % 0.0 mm
17:14 30.3 °C 10.8 °C 1018.8 hPa SW 11.1 km/h 11.1 km/h 30 % 0.0 mm
17:19 30.2 °C 10.7 °C 1018.8 hPa WSW 14.8 km/h 14.8 km/h 30 % 0.0 mm
17:24 29.9 °C 10.4 °C 1018.8 hPa SW 13.0 km/h 13.0 km/h 30 % 0.0 mm
17:29 29.5 °C 10.6 °C 1018.8 hPa SW 22.0 km/h 22.0 km/h 31 % 0.0 mm
17:34 29.5 °C 10.6 °C 1018.8 hPa SW 20.4 km/h 20.4 km/h 31 % 0.0 mm
17:39 29.6 °C 11.2 °C 1018.8 hPa SW 16.7 km/h 16.7 km/h 32 % 0.0 mm
17:44 29.3 °C 10.9 °C 1018.8 hPa SSW 14.8 km/h 14.8 km/h 32 % 0.0 mm
17:54 29.6 °C 11.6 °C 1018.8 hPa WSW 10.0 km/h 10.0 km/h 33 % 0.0 mm
17:59 29.8 °C 11.8 °C 1018.8 hPa SW 11.4 km/h 11.4 km/h 33 % 0.0 mm
18:04 29.2 °C 10.8 °C 1018.8 hPa SW 18.5 km/h 18.5 km/h 32 % 0.0 mm
18:09 28.8 °C 10.9 °C 1018.8 hPa WSW 18.5 km/h 18.5 km/h 33 % 0.0 mm
18:14 29.0 °C 11.1 °C 1018.8 hPa SSW 11.1 km/h 11.1 km/h 33 % 0.0 mm
18:19 29.4 °C 11.0 °C 1017.8 hPa WSW 13.0 km/h 13.0 km/h 32 % 0.0 mm
18:24 29.0 °C 11.1 °C 1017.8 hPa SSW 13.0 km/h 13.0 km/h 33 % 0.0 mm
18:29 28.6 °C 11.2 °C 1017.8 hPa SW 20.1 km/h 20.1 km/h 34 % 0.0 mm
18:34 28.5 °C 11.6 °C 1017.8 hPa SW 14.0 km/h 14.0 km/h 35 % 0.0 mm
18:39 28.4 °C 11.4 °C 1017.8 hPa WSW 14.8 km/h 14.8 km/h 35 % 0.0 mm
18:44 28.5 °C 12.0 °C 1017.8 hPa SW 11.9 km/h 11.9 km/h 36 % 0.0 mm
18:49 28.3 °C 11.8 °C 1017.8 hPa SSW 12.6 km/h 12.6 km/h 36 % 0.0 mm
18:59 27.7 °C 11.3 °C 1017.8 hPa SW 11.1 km/h 11.1 km/h 36 % 0.0 mm
19:04 27.8 °C 11.8 °C 1017.8 hPa SSW 5.6 km/h 6.1 km/h 37 % 0.0 mm
19:09 27.7 °C 11.7 °C 1017.8 hPa SW 5.8 km/h 5.8 km/h 37 % 0.0 mm
19:14 27.3 °C 11.3 °C 1017.8 hPa SSW 16.7 km/h 16.7 km/h 37 % 0.0 mm
19:15 20.6 °C 10.9 °C 1021.9 hPa SW 3.2 km/h 4.8 km/h 54 % 0.0 mm
19:19 27.2 °C 11.7 °C 1017.8 hPa SW 11.1 km/h 11.1 km/h 38 % 0.0 mm
19:24 27.0 °C 11.4 °C 1017.8 hPa SW 16.9 km/h 16.9 km/h 38 % 0.0 mm
19:25 20.4 °C 10.8 °C 1021.9 hPa WSW 3.2 km/h 4.8 km/h 54 % 0.0 mm
19:29 26.6 °C 11.5 °C 1017.8 hPa SSW 22.2 km/h 22.2 km/h 39 % 0.0 mm
19:35 20.3 °C 10.9 °C 1021.9 hPa WSW 3.2 km/h 4.8 km/h 55 % 0.0 mm
19:39 26.1 °C 11.4 °C 1017.8 hPa SSE 11.1 km/h 11.1 km/h 40 % 0.0 mm
19:44 26.0 °C 11.7 °C 1017.8 hPa WSW 7.4 km/h 7.4 km/h 41 % 0.0 mm
19:45 20.1 °C 10.8 °C 1021.9 hPa WSW 3.2 km/h 4.8 km/h 55 % 0.0 mm
19:49 25.9 °C 11.6 °C 1017.8 hPa SSE 7.4 km/h 7.4 km/h 41 % 0.0 mm
19:54 26.0 °C 11.7 °C 1017.8 hPa WSW 5.8 km/h 5.8 km/h 41 % 0.0 mm
19:55 19.9 °C 10.8 °C 1020.9 hPa WSW 3.2 km/h 4.8 km/h 56 % 0.0 mm
19:59 26.0 °C 11.7 °C 1017.8 hPa South 9.3 km/h 9.3 km/h 41 % 0.0 mm
20:05 19.9 °C 10.8 °C 1021.9 hPa WSW 3.2 km/h 4.8 km/h 56 % 0.0 mm
20:14 25.7 °C 11.8 °C 1018.8 hPa SSE 3.9 km/h 3.9 km/h 42 % 0.0 mm
20:20 25.5 °C 11.7 °C 1018.8 hPa WSW 5.6 km/h 5.6 km/h 42 % 0.0 mm
20:25 19.8 °C 11.3 °C 1020.9 hPa WSW 3.2 km/h 4.8 km/h 58 % 0.0 mm
20:30 25.1 °C 11.3 °C 1018.8 hPa SSE 3.5 km/h 3.5 km/h 42 % 0.0 mm
20:35 25.1 °C 11.3 °C 1018.8 hPa SSW 5.6 km/h 5.8 km/h 42 % 0.0 mm
20:40 24.9 °C 11.4 °C 1018.8 hPa SSW 5.6 km/h 5.6 km/h 43 % 0.0 mm
20:45 24.8 °C 11.3 °C 1018.8 hPa SW 4.8 km/h 8.0 km/h 43 % 0.0 mm
20:50 24.5 °C 11.4 °C 1019.9 hPa SW 3.2 km/h 4.8 km/h 44 % 0.0 mm
21:00 24.3 °C 11.3 °C 1019.9 hPa Calm   6.4 km/h 44 % 0.0 mm
21:05 24.1 °C 11.1 °C 1019.9 hPa SW 4.8 km/h 4.8 km/h 44 % 0.0 mm
21:10 24.0 °C 11.3 °C 1019.9 hPa SW 3.7 km/h 5.8 km/h 45 % 0.0 mm
21:15 24.0 °C 11.3 °C 1019.9 hPa SW 4.8 km/h 4.8 km/h 45 % 0.0 mm
21:20 23.8 °C 11.2 °C 1019.9 hPa SW 4.8 km/h 4.8 km/h 45 % 0.0 mm
21:25 23.6 °C 11.3 °C 1019.9 hPa SW 4.8 km/h 4.8 km/h 46 % 0.0 mm
21:30 23.5 °C 11.2 °C 1019.9 hPa Calm   4.8 km/h 46 % 0.0 mm
21:35 23.3 °C 11.7 °C 1019.9 hPa Calm   1.6 km/h 48 % 0.0 mm
21:40 23.1 °C 11.8 °C 1019.9 hPa Calm   1.6 km/h 49 % 0.0 mm
21:45 23.0 °C 11.7 °C 1019.9 hPa Calm   1.6 km/h 49 % 0.0 mm
21:50 22.9 °C 12.2 °C 1019.9 hPa Calm   1.6 km/h 51 % 0.0 mm
21:55 22.8 °C 12.1 °C 1019.9 hPa Calm   1.6 km/h 51 % 0.0 mm
22:00 22.7 °C 12.1 °C 1019.9 hPa SSW 1.9 km/h   51 % 0.0 mm
22:05 22.6 °C 11.9 °C 1019.9 hPa SSW 1.9 km/h   51 % 0.0 mm
22:10 22.4 °C 12.1 °C 1019.9 hPa SSW 1.9 km/h   52 % 0.0 mm
22:15 18.9 °C 12.4 °C 1019.9 hPa WSW 3.2 km/h 4.8 km/h 66 % 0.0 mm
22:20 22.2 °C 11.9 °C 1019.9 hPa SSW 1.9 km/h   52 % 0.0 mm
22:25 22.1 °C 11.8 °C 1019.9 hPa Calm   1.6 km/h 52 % 0.0 mm
22:30 22.1 °C 12.1 °C 1019.9 hPa SSW 1.9 km/h   53 % 0.0 mm
22:35 21.9 °C 12.4 °C 1019.9 hPa SSW 1.9 km/h   55 % 0.0 mm
22:40 21.7 °C 12.6 °C 1019.9 hPa SSW 1.9 km/h   56 % 0.0 mm
22:45 21.6 °C 12.7 °C 1019.9 hPa SSW 1.9 km/h   57 % 0.0 mm
22:50 21.4 °C 12.5 °C 1020.9 hPa SSW 1.9 km/h   57 % 0.0 mm
22:55 21.3 °C 12.4 °C 1020.9 hPa SSW 1.9 km/h   57 % 0.0 mm
23:00 21.3 °C 12.4 °C 1020.9 hPa SSW 1.9 km/h   57 % 0.0 mm
23:05 21.2 °C 12.3 °C 1019.9 hPa SSW 1.9 km/h   57 % 0.0 mm
23:10 21.2 °C 12.1 °C 1019.9 hPa SSW 1.9 km/h   56 % 0.0 mm
23:15 21.2 °C 11.8 °C 1019.9 hPa SSW 1.9 km/h   55 % 0.0 mm
23:20 21.1 °C 11.7 °C 1020.9 hPa SSW 1.9 km/h   55 % 0.0 mm
23:25 21.1 °C 11.4 °C 1020.9 hPa SSW 1.9 km/h   54 % 0.0 mm
23:30 21.1 °C 11.4 °C 1020.9 hPa SSW 1.9 km/h   54 % 0.0 mm
23:35 21.1 °C 11.4 °C 1020.9 hPa Calm   1.6 km/h 54 % 0.0 mm
23:40 21.0 °C 11.3 °C 1020.9 hPa SSW 1.9 km/h   54 % 0.0 mm
23:45 21.0 °C 11.3 °C 1020.9 hPa SSW 1.9 km/h   54 % 0.0 mm
23:50 21.0 °C 11.3 °C 1020.9 hPa SSW 1.9 km/h   54 % 0.0 mm
23:55 20.9 °C 11.2 °C 1020.9 hPa SSW 1.9 km/h   54 % 0.0 mm
Meteo Sesrovires
Elogis d' Weather Underground - 3.5 mb

Guio original per  Jim McMurry - jmcmurry@mwt.net Adaptat per a la plantilla per  Wim van der Kuil - Leuven-Template.eu

Trobareu la nostra informacio del temps tambe a:

Weather Underground

AWEKAS